createdAt,value
2018-10-05T00:00:27.786Z,16.80
2018-10-05T00:01:27.804Z,16.90
2018-10-05T00:02:27.822Z,24.60
2018-10-05T00:03:27.840Z,19.60
2018-10-05T00:04:27.859Z,17.80
2018-10-05T00:05:27.878Z,23.60
2018-10-05T00:06:27.896Z,15.80
2018-10-05T00:07:27.913Z,17.60
2018-10-05T00:08:27.932Z,17.60
2018-10-05T00:09:27.951Z,17.90
2018-10-05T00:10:27.991Z,18.30
2018-10-05T00:11:27.987Z,15.10
2018-10-05T00:12:28.005Z,16.20
2018-10-05T00:13:28.025Z,17.20
2018-10-05T00:14:28.040Z,18.50
2018-10-05T00:15:28.060Z,15.70
2018-10-05T00:16:28.078Z,15.30
2018-10-05T00:17:28.099Z,18.60
2018-10-05T00:18:28.114Z,16.60
2018-10-05T00:19:28.132Z,17.60
2018-10-05T00:20:28.180Z,18.60
2018-10-05T00:21:28.171Z,18.00
2018-10-05T00:22:28.186Z,16.30
2018-10-05T00:23:28.204Z,17.20
2018-10-05T00:24:28.223Z,17.90
2018-10-05T00:25:28.241Z,18.20
2018-10-05T00:26:28.259Z,20.30
2018-10-05T00:27:28.276Z,18.90
2018-10-05T00:28:28.296Z,20.20
2018-10-05T00:29:28.313Z,16.60
2018-10-05T00:30:28.331Z,18.80
2018-10-05T00:31:28.350Z,18.10
2018-10-05T00:32:28.391Z,16.90
2018-10-05T00:33:28.387Z,22.90
2018-10-05T00:34:28.404Z,15.80
2018-10-05T00:35:28.422Z,18.30
2018-10-05T00:36:28.440Z,15.80
2018-10-05T00:37:28.459Z,15.80
2018-10-05T00:38:28.476Z,16.40
2018-10-05T00:39:28.494Z,17.90
2018-10-05T00:40:28.513Z,19.30
2018-10-05T00:41:28.532Z,15.20
2018-10-05T00:42:28.549Z,17.80
2018-10-05T00:43:28.567Z,16.40
2018-10-05T00:44:28.585Z,15.20
2018-10-05T00:45:28.604Z,14.90
2018-10-05T00:46:28.621Z,18.10
2018-10-05T00:47:28.639Z,16.50
2018-10-05T00:48:28.658Z,16.10
2018-10-05T00:49:28.678Z,17.10
2018-10-05T00:50:28.694Z,18.00
2018-10-05T00:51:28.712Z,17.10
2018-10-05T00:52:28.731Z,17.40
2018-10-05T00:53:28.816Z,16.80
2018-10-05T00:54:28.767Z,15.00
2018-10-05T00:55:28.786Z,17.10
2018-10-05T00:56:28.803Z,17.10
2018-10-05T00:57:28.822Z,16.10
2018-10-05T00:58:28.839Z,17.50
2018-10-05T00:59:28.857Z,16.80
2018-10-05T01:00:28.876Z,17.10
2018-10-05T01:01:28.895Z,18.00
2018-10-05T01:02:28.912Z,17.10
2018-10-05T01:03:28.930Z,16.80
2018-10-05T01:04:28.949Z,16.80
2018-10-05T01:05:28.967Z,17.40
2018-10-05T01:06:28.985Z,19.80
2018-10-05T01:07:29.004Z,17.40
2018-10-05T01:08:29.021Z,17.70
2018-10-05T01:09:29.039Z,18.60
2018-10-05T01:10:29.057Z,16.90
2018-10-05T01:11:29.096Z,20.00
2018-10-05T01:12:29.093Z,19.90
2018-10-05T01:13:29.112Z,19.00
2018-10-05T01:14:29.129Z,17.80
2018-10-05T01:15:29.149Z,19.50
2018-10-05T01:16:29.167Z,16.90
2018-10-05T01:17:29.184Z,20.20
2018-10-05T01:18:29.203Z,19.40
2018-10-05T01:19:29.219Z,18.10
2018-10-05T01:20:29.238Z,20.70
2018-10-05T01:21:29.257Z,20.40
2018-10-05T01:22:29.274Z,17.40
2018-10-05T01:23:29.292Z,22.00
2018-10-05T01:24:29.312Z,17.60
2018-10-05T01:25:29.328Z,22.80
2018-10-05T01:26:29.345Z,21.20
2018-10-05T01:27:29.364Z,19.00
2018-10-05T01:28:29.382Z,17.60
2018-10-05T01:29:29.400Z,19.00
2018-10-05T01:30:29.418Z,18.70
2018-10-05T01:31:29.437Z,16.20
2018-10-05T01:32:29.455Z,16.90
2018-10-05T01:33:29.473Z,17.90
2018-10-05T01:34:29.488Z,19.20
2018-10-05T01:35:29.508Z,18.10
2018-10-05T01:36:29.527Z,16.50
2018-10-05T01:37:29.544Z,16.00
2018-10-05T01:38:29.562Z,19.90
2018-10-05T01:39:29.580Z,19.30
2018-10-05T01:40:29.598Z,16.80
2018-10-05T01:41:29.616Z,18.10
2018-10-05T01:42:29.634Z,18.00
2018-10-05T01:43:29.658Z,19.10
2018-10-05T01:44:29.671Z,18.30
2018-10-05T01:45:29.689Z,16.50
2018-10-05T01:46:29.706Z,19.40
2018-10-05T01:47:29.724Z,17.70
2018-10-05T01:48:29.746Z,18.10
2018-10-05T01:49:29.760Z,18.20
2018-10-05T01:50:29.777Z,16.80
2018-10-05T01:51:29.796Z,15.70
2018-10-05T01:52:29.813Z,22.20
2018-10-05T01:53:29.841Z,20.40
2018-10-05T01:54:29.849Z,19.30
2018-10-05T01:55:29.867Z,16.70
2018-10-05T01:56:29.885Z,16.90
2018-10-05T01:57:29.903Z,18.90
2018-10-05T01:58:29.970Z,17.90
2018-10-05T01:59:29.942Z,21.30
2018-10-05T02:00:29.957Z,18.10
2018-10-05T02:01:29.975Z,19.70
2018-10-05T02:02:30.054Z,18.00
2018-10-05T02:03:30.011Z,19.30
2018-10-05T02:04:30.029Z,18.20
2018-10-05T02:05:30.047Z,24.20
2018-10-05T02:06:30.070Z,17.60
2018-10-05T02:07:30.082Z,16.90
2018-10-05T02:08:30.102Z,20.90
2018-10-05T02:09:30.118Z,18.00
2018-10-05T02:10:30.136Z,18.10
2018-10-05T02:11:30.153Z,18.60
2018-10-05T02:12:30.170Z,17.80
2018-10-05T02:13:30.190Z,19.60
2018-10-05T02:14:30.206Z,19.90
2018-10-05T02:15:30.224Z,18.00
2018-10-05T02:16:30.242Z,19.00
2018-10-05T02:17:30.261Z,21.60
2018-10-05T02:18:30.278Z,16.00
2018-10-05T02:19:30.299Z,16.20
2018-10-05T02:20:30.313Z,18.10
2018-10-05T02:21:30.331Z,17.80
2018-10-05T02:22:30.349Z,19.10
2018-10-05T02:23:30.367Z,20.20
2018-10-05T02:24:30.385Z,21.10
2018-10-05T02:25:30.403Z,19.30
2018-10-05T02:26:30.420Z,20.30
2018-10-05T02:27:30.462Z,19.80
2018-10-05T02:28:30.456Z,20.10
2018-10-05T02:29:30.474Z,22.10
2018-10-05T02:30:30.495Z,19.10
2018-10-05T02:31:30.513Z,18.00
2018-10-05T02:32:30.541Z,17.70
2018-10-05T02:33:30.546Z,17.10
2018-10-05T02:34:30.562Z,18.10
2018-10-05T02:35:30.581Z,17.00
2018-10-05T02:36:30.598Z,19.30
2018-10-05T02:37:30.617Z,23.00
2018-10-05T02:38:30.646Z,20.80
2018-10-05T02:39:30.651Z,21.60
2018-10-05T02:40:30.669Z,20.60
2018-10-05T02:41:30.721Z,18.50
2018-10-05T02:42:30.705Z,21.20
2018-10-05T02:43:30.727Z,20.80
2018-10-05T02:44:30.741Z,18.60
2018-10-05T02:45:30.758Z,21.70
2018-10-05T02:46:30.784Z,22.10
2018-10-05T02:47:30.794Z,21.30
2018-10-05T02:48:30.812Z,19.30
2018-10-05T02:49:30.832Z,20.20
2018-10-05T02:50:30.850Z,16.90
2018-10-05T02:51:30.876Z,19.00
2018-10-05T02:52:30.889Z,20.80
2018-10-05T02:53:30.900Z,23.00
2018-10-05T02:54:30.919Z,17.80
2018-10-05T02:55:30.936Z,19.30
2018-10-05T02:56:30.954Z,18.30
2018-10-05T02:57:30.972Z,18.00
2018-10-05T02:58:30.989Z,20.40
2018-10-05T02:59:31.007Z,22.60
2018-10-05T03:00:31.024Z,23.50
2018-10-05T03:01:31.043Z,20.40
2018-10-05T03:02:31.060Z,25.60
2018-10-05T03:03:31.078Z,22.30
2018-10-05T03:04:31.096Z,24.50
2018-10-05T03:05:31.117Z,23.10
2018-10-05T03:06:31.130Z,18.30
2018-10-05T03:07:31.148Z,20.00
2018-10-05T03:08:31.166Z,19.50
2018-10-05T03:09:31.184Z,19.60
2018-10-05T03:10:31.205Z,21.00
2018-10-05T03:11:31.220Z,24.40
2018-10-05T03:12:31.237Z,21.30
2018-10-05T03:13:31.255Z,18.00
2018-10-05T03:14:31.272Z,18.20
2018-10-05T03:15:31.290Z,20.00
2018-10-05T03:16:31.308Z,21.00
2018-10-05T03:17:31.330Z,20.30
2018-10-05T03:18:31.342Z,18.20
2018-10-05T03:19:31.361Z,19.30
2018-10-05T03:20:31.382Z,23.80
2018-10-05T03:21:31.397Z,20.40
2018-10-05T03:22:31.413Z,21.30
2018-10-05T03:23:31.433Z,20.80
2018-10-05T03:24:31.449Z,21.30
2018-10-05T03:25:31.468Z,22.70
2018-10-05T03:26:31.485Z,18.50
2018-10-05T03:27:31.503Z,22.50
2018-10-05T03:28:31.523Z,18.00
2018-10-05T03:29:31.538Z,21.50
2018-10-05T03:30:31.556Z,19.00
2018-10-05T03:31:31.574Z,20.60
2018-10-05T03:32:31.592Z,24.70
2018-10-05T03:33:31.609Z,20.40
2018-10-05T03:34:31.626Z,17.60
2018-10-05T03:35:31.644Z,19.30
2018-10-05T03:36:31.662Z,18.40
2018-10-05T03:37:31.679Z,20.80
2018-10-05T03:38:31.699Z,20.50
2018-10-05T03:39:31.715Z,17.30
2018-10-05T03:40:31.736Z,18.70
2018-10-05T03:41:31.751Z,21.70
2018-10-05T03:42:31.768Z,20.10
2018-10-05T03:43:31.790Z,18.80
2018-10-05T03:44:31.805Z,21.40
2018-10-05T03:45:31.821Z,19.00
2018-10-05T03:46:31.839Z,22.40
2018-10-05T03:47:31.856Z,19.70
2018-10-05T03:48:31.874Z,21.00
2018-10-05T03:49:31.892Z,17.70
2018-10-05T03:50:31.912Z,18.80
2018-10-05T03:51:31.928Z,20.80
2018-10-05T03:52:31.945Z,18.30
2018-10-05T03:53:31.963Z,21.50
2018-10-05T03:54:31.980Z,20.00
2018-10-05T03:55:31.997Z,18.90
2018-10-05T03:56:32.016Z,20.90
2018-10-05T03:57:32.033Z,19.80
2018-10-05T03:58:32.050Z,18.20
2018-10-05T03:59:32.068Z,20.50
2018-10-05T04:00:32.086Z,19.40
2018-10-05T04:01:32.105Z,20.40
2018-10-05T04:02:32.126Z,21.50
2018-10-05T04:03:32.138Z,17.70
2018-10-05T04:04:32.156Z,20.20
2018-10-05T04:05:32.176Z,18.00
2018-10-05T04:06:32.191Z,18.10
2018-10-05T04:07:32.208Z,21.30
2018-10-05T04:08:32.234Z,19.60
2018-10-05T04:09:32.245Z,18.30
2018-10-05T04:10:32.261Z,19.50
2018-10-05T04:11:32.280Z,20.80
2018-10-05T04:12:32.300Z,18.20
2018-10-05T04:13:32.316Z,18.40
2018-10-05T04:14:32.333Z,17.40
2018-10-05T04:15:32.349Z,19.10
2018-10-05T04:16:32.669Z,18.30
2018-10-05T04:17:32.386Z,18.80
2018-10-05T04:18:32.403Z,18.10
2018-10-05T04:19:32.420Z,17.90
2018-10-05T04:20:32.438Z,17.70
2018-10-05T04:21:32.474Z,17.00
2018-10-05T04:22:32.472Z,16.60
2018-10-05T04:23:32.490Z,16.80
2018-10-05T04:24:32.508Z,16.50
2018-10-05T04:25:32.526Z,19.10
2018-10-05T04:26:32.543Z,17.10
2018-10-05T04:27:32.561Z,18.80
2018-10-05T04:28:32.579Z,19.00
2018-10-05T04:29:32.596Z,18.00
2018-10-05T04:30:32.613Z,13.60
2018-10-05T04:31:32.631Z,17.30
2018-10-05T04:32:32.652Z,17.70
2018-10-05T04:33:32.670Z,18.60
2018-10-05T04:34:32.684Z,21.30
2018-10-05T04:35:32.730Z,20.10
2018-10-05T04:36:32.720Z,19.90
2018-10-05T04:37:32.738Z,20.20
2018-10-05T04:38:32.756Z,18.20
2018-10-05T04:39:32.771Z,20.40
2018-10-05T04:40:32.789Z,18.80
2018-10-05T04:41:32.810Z,25.40
2018-10-05T04:42:32.824Z,19.20
2018-10-05T04:43:32.842Z,19.50
2018-10-05T04:44:32.861Z,18.00
2018-10-05T04:45:32.877Z,17.90
2018-10-05T04:46:32.893Z,20.00
2018-10-05T04:47:32.911Z,15.50
2018-10-05T04:48:32.930Z,17.60
2018-10-05T04:49:33.025Z,21.00
2018-10-05T04:50:32.969Z,21.10
2018-10-05T04:51:32.983Z,19.40
2018-10-05T04:52:33.000Z,20.80
2018-10-05T04:53:33.019Z,17.80
2018-10-05T04:54:33.034Z,18.70
2018-10-05T04:55:33.052Z,21.50
2018-10-05T04:56:33.118Z,19.00
2018-10-05T04:57:33.087Z,18.00
2018-10-05T04:58:33.104Z,20.00
2018-10-05T04:59:33.122Z,15.60
2018-10-05T05:00:33.140Z,18.90
2018-10-05T05:01:33.157Z,18.20
2018-10-05T05:02:33.173Z,15.50
2018-10-05T05:03:33.246Z,21.60
2018-10-05T05:04:33.215Z,19.00
2018-10-05T05:05:33.227Z,19.20
2018-10-05T05:06:33.246Z,20.50
2018-10-05T05:07:33.261Z,18.40
2018-10-05T05:08:33.283Z,17.20
2018-10-05T05:09:33.297Z,17.00
2018-10-05T05:10:33.316Z,19.70
2018-10-05T05:11:33.332Z,19.30
2018-10-05T05:12:33.349Z,17.20
2018-10-05T05:13:33.368Z,17.10
2018-10-05T05:14:33.386Z,18.50
2018-10-05T05:15:33.401Z,18.80
2018-10-05T05:16:33.418Z,22.20
2018-10-05T05:17:33.436Z,16.20
2018-10-05T05:18:33.453Z,17.00
2018-10-05T05:19:33.523Z,22.50
2018-10-05T05:20:33.489Z,19.20
2018-10-05T05:21:33.506Z,18.50
2018-10-05T05:22:33.523Z,19.70
2018-10-05T05:23:33.540Z,17.90
2018-10-05T05:24:33.558Z,18.90
2018-10-05T05:25:33.576Z,19.80
2018-10-05T05:26:33.593Z,17.70
2018-10-05T05:27:33.613Z,19.10
2018-10-05T05:28:33.631Z,17.20
2018-10-05T05:29:33.646Z,17.30
2018-10-05T05:30:33.662Z,21.40
2018-10-05T05:31:33.680Z,19.80
2018-10-05T05:32:33.697Z,13.70
2018-10-05T05:33:33.804Z,20.20
2018-10-05T05:34:33.732Z,20.80
2018-10-05T05:35:33.749Z,20.30
2018-10-05T05:36:33.767Z,23.60
2018-10-05T05:37:33.835Z,19.20
2018-10-05T05:38:33.802Z,14.30
2018-10-05T05:39:33.820Z,17.50
2018-10-05T05:40:33.839Z,21.70
2018-10-05T05:41:33.855Z,21.70
2018-10-05T05:42:33.871Z,22.10
2018-10-05T05:43:33.889Z,19.10
2018-10-05T05:44:33.906Z,19.00
2018-10-05T05:45:33.928Z,20.10
2018-10-05T05:46:33.941Z,22.30
2018-10-05T05:47:33.963Z,22.00
2018-10-05T05:48:33.976Z,26.10
2018-10-05T05:49:33.994Z,19.30
2018-10-05T05:50:34.011Z,20.10
2018-10-05T05:51:34.028Z,20.10
2018-10-05T05:52:34.046Z,28.10
2018-10-05T05:53:34.064Z,20.10
2018-10-05T05:54:34.202Z,22.90
2018-10-05T05:55:34.099Z,20.30
2018-10-05T05:56:34.116Z,19.70
2018-10-05T05:57:34.133Z,24.10
2018-10-05T05:58:34.150Z,22.80
2018-10-05T05:59:34.172Z,29.90
2018-10-05T06:00:34.188Z,25.90
2018-10-05T06:01:34.203Z,24.40
2018-10-05T06:02:34.220Z,37.00
2018-10-05T06:03:34.238Z,30.70
2018-10-05T06:04:34.255Z,26.10
2018-10-05T06:05:34.274Z,29.60
2018-10-05T06:06:34.290Z,24.20
2018-10-05T06:07:34.308Z,23.90
2018-10-05T06:08:34.325Z,21.40
2018-10-05T06:09:34.348Z,23.90
2018-10-05T06:10:34.359Z,25.40
2018-10-05T06:11:34.377Z,23.00
2018-10-05T06:12:34.397Z,20.90
2018-10-05T06:13:34.416Z,20.60
2018-10-05T06:14:34.432Z,22.10
2018-10-05T06:15:34.449Z,25.40
2018-10-05T06:16:34.555Z,19.10
2018-10-05T06:17:34.483Z,19.20
2018-10-05T06:18:34.499Z,22.10
2018-10-05T06:19:34.518Z,18.10
2018-10-05T06:20:34.536Z,20.90
2018-10-05T06:21:34.602Z,18.20
2018-10-05T06:22:34.633Z,22.30
2018-10-05T06:23:34.587Z,18.80
2018-10-05T06:24:34.605Z,18.70
2018-10-05T06:25:34.622Z,18.50
2018-10-05T06:26:34.639Z,20.00
2018-10-05T06:27:34.657Z,20.20
2018-10-05T06:28:34.677Z,26.50
2018-10-05T06:29:34.693Z,16.80
2018-10-05T06:30:34.761Z,19.40
2018-10-05T06:31:34.726Z,16.60
2018-10-05T06:32:34.745Z,16.90
2018-10-05T06:33:34.764Z,18.20
2018-10-05T06:34:34.779Z,16.40
2018-10-05T06:35:34.797Z,23.20
2018-10-05T06:36:34.816Z,24.20
2018-10-05T06:37:34.833Z,18.60
2018-10-05T06:38:34.849Z,16.10
2018-10-05T06:39:34.871Z,20.10
2018-10-05T06:40:34.911Z,19.50
2018-10-05T06:41:34.903Z,19.70
2018-10-05T06:42:35.039Z,22.90
2018-10-05T06:43:34.940Z,19.10
2018-10-05T06:44:34.955Z,32.40
2018-10-05T06:45:34.992Z,22.70
2018-10-05T06:46:34.990Z,18.90
2018-10-05T06:47:35.008Z,19.60
2018-10-05T06:48:35.031Z,17.60
2018-10-05T06:49:35.049Z,17.20
2018-10-05T06:50:35.062Z,15.30
2018-10-05T06:51:35.078Z,17.80
2018-10-05T06:52:35.099Z,15.20
2018-10-05T06:53:35.115Z,14.50
2018-10-05T06:54:35.133Z,19.40
2018-10-05T06:55:35.149Z,17.70
2018-10-05T06:56:35.169Z,23.40
2018-10-05T06:57:35.186Z,23.70
2018-10-05T06:58:35.202Z,18.30
2018-10-05T06:59:35.222Z,20.20
2018-10-05T07:00:35.244Z,14.30
2018-10-05T07:01:35.375Z,20.50
2018-10-05T07:02:35.276Z,15.50
2018-10-05T07:03:35.293Z,20.20
2018-10-05T07:04:35.362Z,12.50
2018-10-05T07:05:35.328Z,14.70
2018-10-05T07:06:35.345Z,16.10
2018-10-05T07:07:35.384Z,15.50
2018-10-05T07:08:35.381Z,16.10
2018-10-05T07:09:35.402Z,13.30
2018-10-05T07:10:35.417Z,22.90
2018-10-05T07:11:35.513Z,20.20
2018-10-05T07:12:35.453Z,16.10
2018-10-05T07:13:35.473Z,17.50
2018-10-05T07:14:35.488Z,19.70
2018-10-05T07:15:35.509Z,19.40
2018-10-05T07:16:35.528Z,15.70
2018-10-05T07:17:35.549Z,18.20
2018-10-05T07:18:35.561Z,15.70
2018-10-05T07:19:35.579Z,17.40
2018-10-05T07:20:35.596Z,17.60
2018-10-05T07:21:35.616Z,18.80
2018-10-05T07:22:35.691Z,15.60
2018-10-05T07:23:35.653Z,17.70
2018-10-05T07:24:35.670Z,14.50
2018-10-05T07:25:35.687Z,19.60
2018-10-05T07:26:35.706Z,17.70
2018-10-05T07:27:35.724Z,12.60
2018-10-05T07:28:35.943Z,15.60
2018-10-05T07:29:35.763Z,17.50
2018-10-05T07:30:35.778Z,14.10
2018-10-05T07:31:35.797Z,16.90
2018-10-05T07:32:35.815Z,15.90
2018-10-05T07:33:35.835Z,18.20
2018-10-05T07:34:35.851Z,15.10
2018-10-05T07:35:35.871Z,14.60
2018-10-05T07:36:35.889Z,13.30
2018-10-05T07:37:35.908Z,14.30
2018-10-05T07:38:35.925Z,12.60
2018-10-05T07:39:35.946Z,16.90
2018-10-05T07:40:35.965Z,12.90
2018-10-05T07:41:35.982Z,16.00
2018-10-05T07:42:35.999Z,15.50
2018-10-05T07:43:36.218Z,12.90
2018-10-05T07:44:36.038Z,14.60
2018-10-05T07:45:36.059Z,15.00
2018-10-05T07:46:36.074Z,15.00
2018-10-05T07:47:36.094Z,12.20
2018-10-05T07:48:36.112Z,16.90
2018-10-05T07:49:36.131Z,15.60
2018-10-05T07:50:36.150Z,14.20
2018-10-05T07:51:36.180Z,15.00
2018-10-05T07:52:36.237Z,14.20
2018-10-05T07:53:36.208Z,16.10
2018-10-05T07:54:36.228Z,17.00
2018-10-05T07:55:36.303Z,18.00
2018-10-05T07:56:36.265Z,14.00
2018-10-05T07:57:36.412Z,11.80
2018-10-05T07:58:36.299Z,12.20
2018-10-05T07:59:36.348Z,14.50
2018-10-05T08:00:36.352Z,14.60
2018-10-05T08:01:36.359Z,13.30
2018-10-05T08:02:36.376Z,14.70
2018-10-05T08:03:36.394Z,11.90
2018-10-05T08:04:36.418Z,15.90
2018-10-05T08:05:36.438Z,13.50
2018-10-05T08:06:36.452Z,9.60
2018-10-05T08:07:36.472Z,11.70
2018-10-05T08:08:36.539Z,14.40
2018-10-05T08:09:36.525Z,11.00
2018-10-05T08:10:36.529Z,13.90
2018-10-05T08:11:36.555Z,10.30
2018-10-05T08:12:36.567Z,14.40
2018-10-05T08:13:36.585Z,10.10
2018-10-05T08:14:36.609Z,14.00
2018-10-05T08:15:36.634Z,12.60
2018-10-05T08:16:36.698Z,13.70
2018-10-05T08:17:36.676Z,13.20
2018-10-05T08:18:36.684Z,13.30
2018-10-05T08:19:36.783Z,12.90
2018-10-05T08:20:36.722Z,13.70
2018-10-05T08:21:36.880Z,11.60
2018-10-05T08:22:36.777Z,11.10
2018-10-05T08:23:36.780Z,13.30
2018-10-05T08:24:36.800Z,10.30
2018-10-05T08:25:36.832Z,9.30
2018-10-05T08:26:37.091Z,10.30
2018-10-05T08:27:36.862Z,13.30
2018-10-05T08:28:36.878Z,12.30
2018-10-05T08:29:36.899Z,10.60
2018-10-05T08:30:36.921Z,8.40
2018-10-05T08:31:36.937Z,10.70
2018-10-05T08:32:36.961Z,9.60
2018-10-05T08:33:36.978Z,13.10
2018-10-05T08:34:37.072Z,14.10
2018-10-05T08:35:37.015Z,11.60
2018-10-05T08:36:37.035Z,9.70
2018-10-05T08:37:37.056Z,11.40
2018-10-05T08:38:37.224Z,11.30
2018-10-05T08:39:37.153Z,15.20
2018-10-05T08:40:37.117Z,11.70
2018-10-05T08:41:37.136Z,10.80
2018-10-05T08:42:37.175Z,10.70
2018-10-05T08:43:37.194Z,9.70
2018-10-05T08:44:37.234Z,14.90
2018-10-05T08:45:37.479Z,12.80
2018-10-05T08:46:37.328Z,12.90
2018-10-05T08:47:37.328Z,10.10
2018-10-05T08:48:37.279Z,17.40
2018-10-05T08:49:37.351Z,14.60
2018-10-05T08:50:37.423Z,12.40
2018-10-05T08:51:37.544Z,9.30
2018-10-05T08:52:37.362Z,12.30
2018-10-05T08:53:37.386Z,11.10
2018-10-05T08:54:37.467Z,12.00
2018-10-05T08:55:37.418Z,15.70
2018-10-05T08:56:37.592Z,14.70
2018-10-05T08:57:37.541Z,10.50
2018-10-05T08:58:37.495Z,16.00
2018-10-05T08:59:37.551Z,11.70
2018-10-05T09:00:37.688Z,9.70
2018-10-05T09:01:37.538Z,13.50
2018-10-05T09:02:37.556Z,12.10
2018-10-05T09:03:37.665Z,12.50
2018-10-05T09:04:37.604Z,9.70
2018-10-05T09:05:37.692Z,12.00
2018-10-05T09:06:37.714Z,11.60
2018-10-05T09:07:37.661Z,13.30
2018-10-05T09:08:37.719Z,10.80
2018-10-05T09:09:37.703Z,9.90
2018-10-05T09:10:37.729Z,10.20
2018-10-05T09:11:37.750Z,14.60
2018-10-05T09:12:37.835Z,13.30
2018-10-05T09:13:37.789Z,12.60
2018-10-05T09:14:37.896Z,14.40
2018-10-05T09:15:37.852Z,10.60
2018-10-05T09:16:37.864Z,12.50
2018-10-05T09:17:37.882Z,14.90
2018-10-05T09:18:37.898Z,11.10
2018-10-05T09:19:37.913Z,9.90
2018-10-05T09:20:38.001Z,12.40
2018-10-05T09:21:37.986Z,12.90
2018-10-05T09:22:37.981Z,10.60
2018-10-05T09:23:37.997Z,16.20
2018-10-05T09:24:38.063Z,11.10
2018-10-05T09:25:38.068Z,9.80
2018-10-05T09:26:38.095Z,9.70
2018-10-05T09:27:38.146Z,9.10
2018-10-05T09:28:38.101Z,9.30
2018-10-05T09:29:38.156Z,10.10
2018-10-05T09:30:38.170Z,10.40
2018-10-05T09:31:38.737Z,10.10
2018-10-05T09:32:38.282Z,10.30
2018-10-05T09:33:38.230Z,15.40
2018-10-05T09:34:38.701Z,18.10
2018-10-05T09:35:38.367Z,12.10
2018-10-05T09:36:38.369Z,11.50
2018-10-05T09:37:38.337Z,11.70
2018-10-05T09:38:38.385Z,14.50
2018-10-05T09:39:38.391Z,12.40
2018-10-05T09:40:38.478Z,10.00
2018-10-05T09:41:38.410Z,10.80
2018-10-05T09:42:38.498Z,11.00
2018-10-05T09:43:38.421Z,12.90
2018-10-05T09:44:38.446Z,10.20
2018-10-05T09:45:38.472Z,13.70
2018-10-05T09:46:38.526Z,10.10
2018-10-05T09:47:38.512Z,10.90
2018-10-05T09:48:38.569Z,10.20
2018-10-05T09:49:38.554Z,10.50
2018-10-05T09:50:40.190Z,12.50
2018-10-05T09:51:38.599Z,10.30
2018-10-05T09:52:38.722Z,10.50
2018-10-05T09:53:38.748Z,9.80
2018-10-05T09:54:38.660Z,10.50
2018-10-05T09:55:38.718Z,10.90
2018-10-05T09:56:38.715Z,10.90
2018-10-05T09:57:38.861Z,12.80
2018-10-05T09:58:40.002Z,8.90
2018-10-05T09:59:38.811Z,9.20
2018-10-05T10:00:38.797Z,9.80
2018-10-05T10:01:38.815Z,12.40
2018-10-05T10:02:38.902Z,10.60
2018-10-05T10:03:38.911Z,8.80
2018-10-05T10:04:38.898Z,11.10
2018-10-05T10:05:38.906Z,11.80
2018-10-05T10:06:38.928Z,9.10
2018-10-05T10:07:38.950Z,10.80
2018-10-05T10:08:39.071Z,14.10
2018-10-05T10:09:39.078Z,7.80
2018-10-05T10:10:39.062Z,8.70
2018-10-05T10:11:39.045Z,11.80
2018-10-05T10:12:39.148Z,10.00
2018-10-05T10:13:39.148Z,15.40
2018-10-05T10:14:39.199Z,10.80
2018-10-05T10:15:39.188Z,10.60
2018-10-05T10:16:39.213Z,12.20
2018-10-05T10:17:39.231Z,10.90
2018-10-05T10:18:39.227Z,9.60
2018-10-05T10:19:39.215Z,11.60
2018-10-05T10:20:39.250Z,10.90
2018-10-05T10:21:39.367Z,22.50
2018-10-05T10:22:39.400Z,18.90
2018-10-05T10:23:40.652Z,12.20
2018-10-05T10:24:39.339Z,9.60
2018-10-05T10:25:39.514Z,9.90
2018-10-05T10:26:39.447Z,11.00
2018-10-05T10:27:39.468Z,13.10
2018-10-05T10:28:39.609Z,9.50
2018-10-05T10:29:39.444Z,13.70
2018-10-05T10:30:39.562Z,7.20
2018-10-05T10:31:39.496Z,12.20
2018-10-05T10:32:39.584Z,14.50
2018-10-05T10:33:39.660Z,11.50
2018-10-05T10:34:39.642Z,13.70
2018-10-05T10:35:39.579Z,15.90
2018-10-05T10:36:39.673Z,12.00
2018-10-05T10:37:39.655Z,11.30
2018-10-05T10:38:39.647Z,11.10
2018-10-05T10:39:39.668Z,7.20
2018-10-05T10:40:39.769Z,8.00
2018-10-05T10:41:39.713Z,11.20
2018-10-05T10:42:39.864Z,8.20
2018-10-05T10:43:39.765Z,7.70
2018-10-05T10:44:39.786Z,13.60
2018-10-05T10:45:39.861Z,6.70
2018-10-05T10:46:39.830Z,7.60
2018-10-05T10:47:40.484Z,10.50
2018-10-05T10:48:39.874Z,12.10
2018-10-05T10:49:39.989Z,12.00
2018-10-05T10:50:39.942Z,19.10
2018-10-05T10:51:39.948Z,11.10
2018-10-05T10:52:39.974Z,14.20
2018-10-05T10:53:40.023Z,12.20
2018-10-05T10:54:40.014Z,11.10
2018-10-05T10:55:40.052Z,10.50
2018-10-05T10:56:40.223Z,10.80
2018-10-05T10:57:40.197Z,7.20
2018-10-05T10:58:40.105Z,7.80
2018-10-05T10:59:40.130Z,8.90
2018-10-05T11:00:40.217Z,11.20
2018-10-05T11:01:40.176Z,15.30
2018-10-05T11:02:40.195Z,11.80
2018-10-05T11:03:40.223Z,11.90
2018-10-05T11:04:40.309Z,12.20
2018-10-05T11:05:40.266Z,6.90
2018-10-05T11:06:40.291Z,10.60
2018-10-05T11:07:40.312Z,8.70
2018-10-05T11:08:40.354Z,7.90
2018-10-05T11:09:40.374Z,8.00
2018-10-05T11:10:40.442Z,10.20
2018-10-05T11:11:40.404Z,10.60
2018-10-05T11:12:40.457Z,9.40
2018-10-05T11:13:40.470Z,6.50
2018-10-05T11:14:40.478Z,8.00
2018-10-05T11:15:40.503Z,9.90
2018-10-05T11:16:40.522Z,11.60
2018-10-05T11:17:40.550Z,6.30
2018-10-05T11:18:40.568Z,9.80
2018-10-05T11:19:40.591Z,7.90
2018-10-05T11:20:40.620Z,7.30
2018-10-05T11:21:40.643Z,10.90
2018-10-05T11:22:40.668Z,8.20
2018-10-05T11:23:40.688Z,10.30
2018-10-05T11:24:40.797Z,10.50
2018-10-05T11:25:40.795Z,10.60
2018-10-05T11:26:40.757Z,8.20
2018-10-05T11:27:40.781Z,8.80
2018-10-05T11:28:40.813Z,8.50
2018-10-05T11:29:40.937Z,14.20
2018-10-05T11:30:40.851Z,11.70
2018-10-05T11:31:40.992Z,7.20
2018-10-05T11:32:40.941Z,9.70
2018-10-05T11:33:40.919Z,13.50
2018-10-05T11:34:40.994Z,15.40
2018-10-05T11:35:40.969Z,11.30
2018-10-05T11:36:40.992Z,9.70
2018-10-05T11:37:41.018Z,7.60
2018-10-05T11:38:41.037Z,6.10
2018-10-05T11:39:41.163Z,10.70
2018-10-05T11:40:41.116Z,10.40
2018-10-05T11:41:41.106Z,10.30
2018-10-05T11:42:41.131Z,13.00
2018-10-05T11:43:41.159Z,8.00
2018-10-05T11:44:41.179Z,8.80
2018-10-05T11:45:41.203Z,9.10
2018-10-05T11:46:41.226Z,7.80
2018-10-05T11:47:41.247Z,7.50
2018-10-05T11:48:41.275Z,8.00
2018-10-05T11:49:41.295Z,8.10
2018-10-05T11:50:41.330Z,12.60
2018-10-05T11:51:41.343Z,7.90
2018-10-05T11:52:41.366Z,8.20
2018-10-05T11:53:41.391Z,9.90
2018-10-05T11:54:41.414Z,9.40
2018-10-05T11:55:41.436Z,7.60
2018-10-05T11:56:41.466Z,13.20
2018-10-05T11:57:41.491Z,8.10
2018-10-05T11:58:41.508Z,6.30
2018-10-05T11:59:41.541Z,8.60
2018-10-05T12:00:41.560Z,8.30
2018-10-05T12:01:41.582Z,7.00
2018-10-05T12:02:41.702Z,11.50
2018-10-05T12:03:41.628Z,11.90
2018-10-05T12:04:41.652Z,9.40
2018-10-05T12:05:41.688Z,9.60
2018-10-05T12:06:41.700Z,6.90
2018-10-05T12:07:41.723Z,18.90
2018-10-05T12:08:41.748Z,14.20
2018-10-05T12:09:41.814Z,5.80
2018-10-05T12:10:41.792Z,11.50
2018-10-05T12:11:41.817Z,9.80
2018-10-05T12:12:41.849Z,9.20
2018-10-05T12:13:41.916Z,9.50
2018-10-05T12:14:41.889Z,9.30
2018-10-05T12:15:41.913Z,7.40
2018-10-05T12:16:41.937Z,9.70
2018-10-05T12:17:41.961Z,16.10
2018-10-05T12:18:41.982Z,19.50
2018-10-05T12:19:42.009Z,12.10
2018-10-05T12:20:42.035Z,9.80
2018-10-05T12:21:42.055Z,9.30
2018-10-05T12:22:42.080Z,6.40
2018-10-05T12:23:42.104Z,29.90
2018-10-05T12:24:42.125Z,11.30
2018-10-05T12:25:42.151Z,11.20
2018-10-05T12:26:42.285Z,10.00
2018-10-05T12:27:42.198Z,18.30
2018-10-05T12:28:42.223Z,13.30
2018-10-05T12:29:42.245Z,9.50
2018-10-05T12:30:42.272Z,9.60
2018-10-05T12:31:42.294Z,9.00
2018-10-05T12:32:42.324Z,8.10
2018-10-05T12:33:42.344Z,6.50
2018-10-05T12:34:42.367Z,5.50
2018-10-05T12:35:42.388Z,11.30
2018-10-05T12:36:42.412Z,7.60
2018-10-05T12:37:42.436Z,7.70
2018-10-05T12:38:42.460Z,8.70
2018-10-05T12:39:42.487Z,9.00
2018-10-05T12:40:42.507Z,9.40
2018-10-05T12:41:42.531Z,12.50
2018-10-05T12:42:42.557Z,11.60
2018-10-05T12:43:42.579Z,9.70
2018-10-05T12:44:42.604Z,16.20
2018-10-05T12:45:42.631Z,13.00
2018-10-05T12:46:43.114Z,8.00
2018-10-05T12:47:42.678Z,11.10
2018-10-05T12:48:42.699Z,6.10
2018-10-05T12:49:42.726Z,7.90
2018-10-05T12:50:42.748Z,16.40
2018-10-05T12:51:42.772Z,7.70
2018-10-05T12:52:42.800Z,8.30
2018-10-05T12:53:42.821Z,7.10
2018-10-05T12:54:42.846Z,10.40
2018-10-05T12:55:42.869Z,12.90
2018-10-05T12:56:42.899Z,9.20